createdAt,value
2023-04-05T00:00:15.560Z,45.96
2023-04-05T00:02:44.087Z,46.08
2023-04-05T00:05:12.620Z,47.09
2023-04-05T00:07:40.670Z,46.70
2023-04-05T00:10:08.945Z,46.01
2023-04-05T00:12:36.644Z,45.88
2023-04-05T00:15:05.179Z,46.38
2023-04-05T00:17:35.397Z,44.83
2023-04-05T00:20:07.280Z,46.17
2023-04-05T00:22:36.053Z,45.80
2023-04-05T00:25:03.747Z,45.30
2023-04-05T00:27:31.609Z,46.22
2023-04-05T00:29:59.335Z,46.77
2023-04-05T00:32:27.054Z,46.19
2023-04-05T00:34:56.247Z,46.02
2023-04-05T00:37:23.995Z,45.80
2023-04-05T00:39:53.702Z,45.88
2023-04-05T00:42:21.446Z,45.91
2023-04-05T00:44:49.233Z,45.47
2023-04-05T00:47:17.036Z,45.60
2023-04-05T00:49:44.751Z,45.44
2023-04-05T00:52:14.663Z,45.27
2023-04-05T00:54:43.682Z,45.77
2023-04-05T00:57:11.594Z,44.91
2023-04-05T00:59:39.292Z,45.52
2023-04-05T01:02:13.661Z,45.30
2023-04-05T01:04:50.312Z,45.43
2023-04-05T01:07:27.280Z,45.24
2023-04-05T01:09:58.054Z,45.75
2023-04-05T01:12:28.852Z,45.12
2023-04-05T01:14:57.119Z,45.40
2023-04-05T01:17:28.392Z,45.40
2023-04-05T01:19:59.417Z,45.42
2023-04-05T01:23:07.290Z,45.25
2023-04-05T01:26:10.921Z,45.37
2023-04-05T01:29:01.064Z,45.99
2023-04-05T01:31:36.790Z,45.83
2023-04-05T01:34:09.609Z,46.16
2023-04-05T01:36:41.318Z,46.75
2023-04-05T01:39:12.555Z,46.03
2023-04-05T01:41:41.021Z,46.64
2023-04-05T01:44:08.837Z,46.51
2023-04-05T01:46:37.998Z,45.87
2023-04-05T01:49:06.042Z,46.71
2023-04-05T01:51:33.750Z,45.99
2023-04-05T01:54:01.523Z,45.79
2023-04-05T01:56:29.222Z,45.54
2023-04-05T01:58:56.992Z,45.45
2023-04-05T02:01:25.091Z,44.96
2023-04-05T02:03:54.491Z,44.99
2023-04-05T02:06:22.328Z,45.05
2023-04-05T02:08:50.128Z,45.00
2023-04-05T02:11:17.889Z,45.40
2023-04-05T02:13:45.614Z,46.32
2023-04-05T02:16:13.555Z,46.89
2023-04-05T02:18:41.439Z,47.41
2023-04-05T02:21:11.658Z,48.06
2023-04-05T02:23:39.435Z,48.71
2023-04-05T02:26:07.178Z,47.64
2023-04-05T02:28:34.942Z,46.27
2023-04-05T02:31:02.703Z,47.09
2023-04-05T02:33:31.121Z,47.56
2023-04-05T02:35:58.922Z,47.21
2023-04-05T02:38:28.088Z,46.36
2023-04-05T02:40:55.765Z,46.47
2023-04-05T02:43:23.449Z,46.76
2023-04-05T02:45:52.095Z,47.51
2023-04-05T02:48:19.855Z,46.43
2023-04-05T02:50:48.831Z,46.25
2023-04-05T02:53:17.163Z,46.20
2023-04-05T02:55:53.234Z,46.49
2023-04-05T02:58:21.046Z,46.43
2023-04-05T03:00:51.433Z,46.64
2023-04-05T03:03:19.401Z,47.08
2023-04-05T03:05:48.645Z,47.75
2023-04-05T03:08:19.658Z,48.03
2023-04-05T03:10:48.950Z,47.56
2023-04-05T03:13:16.679Z,47.63
2023-04-05T03:15:44.690Z,46.73
2023-04-05T03:18:12.467Z,46.49
2023-04-05T03:20:40.446Z,47.85
2023-04-05T03:23:09.027Z,46.50
2023-04-05T03:25:37.609Z,46.51
2023-04-05T03:28:08.580Z,45.59
2023-04-05T03:30:36.825Z,46.37
2023-04-05T03:33:04.761Z,45.69
2023-04-05T03:35:32.487Z,46.77
2023-04-05T03:38:00.603Z,47.53
2023-04-05T03:40:28.345Z,47.96
2023-04-05T03:42:56.069Z,47.41
2023-04-05T03:45:25.562Z,46.93
2023-04-05T03:47:53.639Z,47.27
2023-04-05T03:50:21.466Z,46.55
2023-04-05T03:52:49.163Z,46.69
2023-04-05T03:55:17.067Z,47.63
2023-04-05T03:57:45.017Z,47.75
2023-04-05T04:00:14.703Z,47.24
2023-04-05T04:02:46.274Z,46.35
2023-04-05T04:05:14.774Z,47.00
2023-04-05T04:07:42.711Z,46.81
2023-04-05T04:10:12.192Z,47.07
2023-04-05T04:12:39.950Z,46.48
2023-04-05T04:15:08.792Z,46.96
2023-04-05T04:17:38.224Z,47.23
2023-04-05T04:20:10.974Z,47.50
2023-04-05T04:22:40.541Z,48.87
2023-04-05T04:25:10.990Z,47.53
2023-04-05T04:27:40.409Z,47.53
2023-04-05T04:30:10.585Z,47.64
2023-04-05T04:32:52.062Z,47.50
2023-04-05T04:35:24.965Z,46.78
2023-04-05T04:37:55.201Z,46.50
2023-04-05T04:40:25.925Z,47.22
2023-04-05T04:42:54.725Z,47.94
2023-04-05T04:45:22.492Z,46.89
2023-04-05T04:47:53.499Z,47.53
2023-04-05T04:50:22.969Z,47.64
2023-04-05T04:52:50.790Z,47.17
2023-04-05T04:55:18.458Z,47.77
2023-04-05T04:57:46.145Z,47.33
2023-04-05T05:00:14.874Z,47.54
2023-04-05T05:02:44.763Z,47.27
2023-04-05T05:05:12.724Z,48.44
2023-04-05T05:07:42.762Z,46.96
2023-04-05T05:10:12.037Z,47.10
2023-04-05T05:12:40.083Z,46.57
2023-04-05T05:15:09.106Z,46.90
2023-04-05T05:17:37.527Z,46.40
2023-04-05T05:20:09.610Z,46.29
2023-04-05T05:22:37.950Z,46.09
2023-04-05T05:25:09.939Z,46.66
2023-04-05T05:27:37.652Z,47.27
2023-04-05T05:30:06.178Z,47.16
2023-04-05T05:32:33.991Z,47.40
2023-04-05T05:35:01.740Z,46.68
2023-04-05T05:37:31.784Z,46.72
2023-04-05T05:40:00.116Z,47.28
2023-04-05T05:42:29.228Z,47.21
2023-04-05T05:44:56.963Z,47.45
2023-04-05T05:47:24.747Z,47.24
2023-04-05T05:49:52.653Z,48.05
2023-04-05T05:52:20.502Z,48.01
2023-04-05T05:54:48.216Z,47.96
2023-04-05T05:57:15.916Z,47.02
2023-04-05T05:59:44.954Z,46.21
2023-04-05T06:02:13.176Z,46.57
2023-04-05T06:04:40.994Z,47.03
2023-04-05T06:07:08.864Z,46.76
2023-04-05T06:09:36.764Z,46.52
2023-04-05T06:12:04.787Z,46.84
2023-04-05T06:14:32.539Z,46.30
2023-04-05T06:17:01.633Z,47.49
2023-04-05T06:19:29.372Z,47.10
2023-04-05T06:21:57.058Z,46.93
2023-04-05T06:24:24.953Z,47.53
2023-04-05T06:26:52.867Z,47.08
2023-04-05T06:29:20.592Z,47.71
2023-04-05T06:31:48.394Z,47.45
2023-04-05T06:34:17.571Z,47.89
2023-04-05T06:36:46.653Z,47.79
2023-04-05T06:39:14.713Z,47.81
2023-04-05T06:41:42.520Z,47.39
2023-04-05T06:44:10.225Z,46.25
2023-04-05T06:46:37.941Z,46.69
2023-04-05T06:49:05.691Z,46.70
2023-04-05T06:51:34.991Z,47.66
2023-04-05T06:54:02.695Z,47.37
2023-04-05T06:56:30.530Z,47.69
2023-04-05T06:58:59.576Z,47.37
2023-04-05T07:01:27.528Z,46.99
2023-04-05T07:03:55.598Z,46.74
2023-04-05T07:06:24.148Z,45.50
2023-04-05T07:08:53.555Z,45.09
2023-04-05T07:11:21.471Z,45.88
2023-04-05T07:13:49.172Z,45.19
2023-04-05T07:16:19.240Z,45.34
2023-04-05T07:18:47.084Z,45.99
2023-04-05T07:21:15.991Z,45.69
2023-04-05T07:23:43.844Z,45.73
2023-04-05T07:26:13.373Z,47.46
2023-04-05T07:28:41.161Z,46.98
2023-04-05T07:31:08.924Z,46.22
2023-04-05T07:33:36.655Z,47.53
2023-04-05T07:36:04.560Z,46.74
2023-04-05T07:38:32.434Z,46.59
2023-04-05T07:41:00.349Z,46.83
2023-04-05T07:43:29.486Z,45.39
2023-04-05T07:46:02.659Z,45.62
2023-04-05T07:48:30.925Z,45.50
2023-04-05T07:51:03.795Z,44.55
2023-04-05T07:53:31.665Z,44.14
2023-04-05T07:55:59.374Z,43.66
2023-04-05T07:58:30.482Z,44.13
2023-04-05T08:01:01.875Z,43.86
2023-04-05T08:03:30.015Z,43.62
2023-04-05T08:05:58.105Z,43.82
2023-04-05T08:08:26.388Z,44.15
2023-04-05T08:10:54.143Z,43.90
2023-04-05T08:13:21.948Z,43.55
2023-04-05T08:15:50.077Z,43.71
2023-04-05T08:18:19.251Z,43.78
2023-04-05T08:20:52.217Z,42.85
2023-04-05T08:23:19.938Z,43.64
2023-04-05T08:25:47.713Z,43.00
2023-04-05T08:28:15.554Z,44.77
2023-04-05T08:30:43.462Z,43.77
2023-04-05T08:33:11.578Z,42.55
2023-04-05T08:35:41.163Z,42.17
2023-04-05T08:38:08.913Z,42.08
2023-04-05T08:40:42.161Z,41.42
2023-04-05T08:43:14.526Z,41.34
2023-04-05T08:45:52.226Z,42.17
2023-04-05T08:48:20.822Z,41.15
2023-04-05T08:50:54.950Z,40.76
2023-04-05T08:53:23.033Z,40.30
2023-04-05T08:55:52.436Z,41.04
2023-04-05T08:58:23.219Z,40.80
2023-04-05T09:00:52.042Z,40.88
2023-04-05T09:03:23.209Z,39.83
2023-04-05T09:05:54.334Z,39.41
2023-04-05T09:08:22.363Z,39.41
2023-04-05T09:10:50.923Z,39.23
2023-04-05T09:13:18.645Z,38.62
2023-04-05T09:15:47.203Z,39.70
2023-04-05T09:18:25.426Z,40.03
2023-04-05T09:21:03.876Z,38.52
2023-04-05T09:23:31.667Z,38.12
2023-04-05T09:25:59.344Z,36.98
2023-04-05T09:28:42.349Z,37.15
2023-04-05T09:31:10.100Z,38.98
2023-04-05T09:33:37.873Z,37.86
2023-04-05T09:36:07.519Z,36.77
2023-04-05T09:38:45.498Z,37.12
2023-04-05T09:41:13.184Z,36.99
2023-04-05T09:43:41.897Z,36.04
2023-04-05T09:46:30.522Z,35.85
2023-04-05T09:48:58.492Z,35.92
2023-04-05T09:51:33.897Z,35.57
2023-04-05T09:54:03.277Z,36.46
2023-04-05T09:56:32.591Z,36.88
2023-04-05T09:59:02.277Z,35.62
2023-04-05T10:01:32.011Z,36.24
2023-04-05T10:04:00.965Z,36.28
2023-04-05T10:06:40.594Z,37.37
2023-04-05T10:09:09.977Z,36.57
2023-04-05T10:11:38.880Z,35.97
2023-04-05T10:14:08.492Z,34.82
2023-04-05T10:16:39.837Z,37.08
2023-04-05T10:19:12.983Z,35.94
2023-04-05T10:21:44.349Z,35.27
2023-04-05T10:24:19.785Z,34.39
2023-04-05T10:27:00.969Z,33.55
2023-04-05T10:29:36.699Z,34.13
2023-04-05T10:32:12.490Z,33.13
2023-04-05T10:34:44.512Z,33.39
2023-04-05T10:37:27.616Z,33.69
2023-04-05T10:39:58.833Z,34.37
2023-04-05T10:42:29.139Z,34.40
2023-04-05T10:45:04.618Z,33.81
2023-04-05T10:47:33.197Z,34.15
2023-04-05T10:50:05.360Z,33.87
2023-04-05T10:52:35.769Z,33.88
2023-04-05T10:55:04.604Z,34.89
2023-04-05T10:57:33.479Z,35.46
2023-04-05T11:00:02.445Z,35.96
2023-04-05T11:02:30.741Z,35.21
2023-04-05T11:04:59.272Z,34.15
2023-04-05T11:07:26.956Z,34.71
2023-04-05T11:09:57.585Z,34.09
2023-04-05T11:13:02.800Z,35.17
2023-04-05T11:15:32.713Z,34.45
2023-04-05T11:18:08.891Z,33.94
2023-04-05T11:20:45.189Z,34.52
2023-04-05T11:23:13.967Z,33.49
2023-04-05T11:25:48.364Z,34.04
2023-04-05T11:28:29.643Z,33.19
2023-04-05T11:30:58.784Z,32.70
2023-04-05T11:33:57.283Z,35.08
2023-04-05T11:36:33.997Z,33.51
2023-04-05T11:39:26.228Z,33.15
2023-04-05T11:42:03.853Z,34.99
2023-04-05T11:44:41.858Z,33.58
2023-04-05T11:47:10.772Z,33.59
2023-04-05T11:49:39.344Z,33.02
2023-04-05T11:52:15.573Z,34.27
2023-04-05T11:54:47.010Z,31.86
2023-04-05T11:57:19.644Z,31.09
2023-04-05T11:59:47.460Z,31.75
2023-04-05T12:02:15.742Z,32.16
2023-04-05T12:04:43.516Z,31.81
2023-04-05T12:07:18.729Z,31.46
2023-04-05T12:10:16.003Z,30.34
2023-04-05T12:12:47.670Z,29.95
2023-04-05T12:15:18.836Z,31.28
2023-04-05T12:17:49.632Z,32.58
2023-04-05T12:20:20.511Z,32.50
2023-04-05T12:22:50.127Z,31.97
2023-04-05T12:25:18.714Z,31.48
2023-04-05T12:27:48.251Z,30.92
2023-04-05T12:30:17.797Z,31.07
2023-04-05T12:32:47.664Z,31.75
2023-04-05T12:35:17.675Z,32.69
2023-04-05T12:37:45.723Z,32.59
2023-04-05T12:40:14.724Z,32.02
2023-04-05T12:42:43.072Z,32.02
2023-04-05T12:45:15.592Z,33.80
2023-04-05T12:47:51.557Z,32.55
2023-04-05T12:50:20.918Z,32.19
2023-04-05T12:52:59.340Z,31.61
2023-04-05T12:55:28.706Z,31.22
2023-04-05T12:57:59.588Z,30.36
2023-04-05T13:00:30.989Z,30.94
2023-04-05T13:03:00.215Z,30.97
2023-04-05T13:05:29.742Z,30.38
2023-04-05T13:07:58.071Z,30.94
2023-04-05T13:10:26.803Z,31.42
2023-04-05T13:12:54.529Z,31.47
2023-04-05T13:15:22.367Z,31.55
2023-04-05T13:17:53.332Z,30.76
2023-04-05T13:20:21.735Z,31.12
2023-04-05T13:22:49.479Z,30.83
2023-04-05T13:25:17.958Z,29.71
2023-04-05T13:27:45.914Z,29.77
2023-04-05T13:30:14.233Z,30.14
2023-04-05T13:32:42.359Z,30.28
2023-04-05T13:35:11.806Z,30.47
2023-04-05T13:37:39.669Z,31.21
2023-04-05T13:40:08.826Z,31.05
2023-04-05T13:42:36.716Z,32.14
2023-04-05T13:45:04.823Z,31.39
2023-04-05T13:47:32.530Z,31.30
2023-04-05T13:50:00.277Z,31.43
2023-04-05T13:52:29.793Z,31.35
2023-04-05T13:55:02.100Z,30.55
2023-04-05T13:57:31.894Z,30.26
2023-04-05T13:59:59.867Z,31.15
2023-04-05T14:02:28.016Z,30.54
2023-04-05T14:04:55.956Z,29.99
2023-04-05T14:07:25.339Z,30.59
2023-04-05T14:09:54.532Z,30.87
2023-04-05T14:12:22.317Z,32.44
2023-04-05T14:14:50.160Z,33.21
2023-04-05T14:17:18.185Z,32.80
2023-04-05T14:19:45.992Z,31.78
2023-04-05T14:22:13.810Z,31.98
2023-04-05T14:24:41.609Z,32.57
2023-04-05T14:27:10.750Z,31.68
2023-04-05T14:29:38.582Z,32.00
2023-04-05T14:32:06.903Z,31.82
2023-04-05T14:34:34.804Z,32.09
2023-04-05T14:37:04.143Z,34.25
2023-04-05T14:39:31.981Z,33.78
2023-04-05T14:41:59.821Z,34.28
2023-04-05T14:44:28.939Z,32.83
2023-04-05T14:46:56.710Z,33.65
2023-04-05T14:49:24.541Z,34.15
2023-04-05T14:51:52.323Z,34.01
2023-04-05T14:54:20.233Z,34.23
2023-04-05T14:56:48.052Z,34.28
2023-04-05T14:59:15.836Z,33.77
2023-04-05T15:01:46.925Z,34.44
2023-04-05T15:04:14.764Z,35.16
2023-04-05T15:06:42.691Z,33.67
2023-04-05T15:09:10.516Z,34.30
2023-04-05T15:11:39.312Z,33.45
2023-04-05T15:14:11.319Z,32.83
2023-04-05T15:16:44.988Z,32.38
2023-04-05T15:19:12.804Z,32.68
2023-04-05T15:21:41.192Z,32.29
2023-04-05T15:24:09.081Z,32.87
2023-04-05T15:26:36.858Z,32.71
2023-04-05T15:29:04.653Z,33.56
2023-04-05T15:31:35.289Z,32.52
2023-04-05T15:34:05.789Z,33.18
2023-04-05T15:36:36.037Z,32.45
2023-04-05T15:39:05.033Z,31.52
2023-04-05T15:41:34.300Z,33.06
2023-04-05T15:44:03.583Z,33.13
2023-04-05T15:46:31.888Z,32.95
2023-04-05T15:49:00.178Z,31.81
2023-04-05T15:51:29.616Z,31.82
2023-04-05T15:53:57.900Z,31.65
2023-04-05T15:56:25.705Z,32.60
2023-04-05T15:58:53.589Z,33.12
2023-04-05T16:01:21.428Z,32.88
2023-04-05T16:03:49.520Z,32.97
2023-04-05T16:06:17.312Z,33.30
2023-04-05T16:08:46.453Z,33.83
2023-04-05T16:11:14.306Z,34.08
2023-04-05T16:13:42.150Z,32.74
2023-04-05T16:16:10.023Z,32.75
2023-04-05T16:18:37.901Z,32.97
2023-04-05T16:21:06.211Z,34.17
2023-04-05T16:23:34.068Z,33.10
2023-04-05T16:26:05.555Z,33.92
2023-04-05T16:28:33.392Z,33.48
2023-04-05T16:31:01.227Z,33.99
2023-04-05T16:33:29.525Z,33.67
2023-04-05T16:35:57.392Z,33.48
2023-04-05T16:38:25.375Z,33.48
2023-04-05T16:40:53.229Z,34.18
2023-04-05T16:43:22.438Z,34.24
2023-04-05T16:45:50.510Z,34.18
2023-04-05T16:48:18.355Z,34.16
2023-04-05T16:50:46.120Z,34.17
2023-04-05T16:53:14.957Z,33.61
2023-04-05T16:55:42.839Z,33.66
2023-04-05T16:58:10.623Z,34.46
2023-04-05T17:00:39.797Z,33.61
2023-04-05T17:03:07.685Z,33.86
2023-04-05T17:05:35.521Z,33.67
2023-04-05T17:08:03.312Z,33.84
2023-04-05T17:10:31.158Z,35.06
2023-04-05T17:12:59.066Z,34.76
2023-04-05T17:15:26.850Z,35.71
2023-04-05T17:17:56.042Z,35.80
2023-04-05T17:20:23.852Z,36.38
2023-04-05T17:22:51.824Z,35.92
2023-04-05T17:25:19.796Z,35.97
2023-04-05T17:27:47.609Z,36.17
2023-04-05T17:30:16.088Z,36.61
2023-04-05T17:32:43.892Z,37.41
2023-04-05T17:35:13.491Z,38.27
2023-04-05T17:37:41.316Z,36.95
2023-04-05T17:40:10.056Z,38.00
2023-04-05T17:42:37.805Z,37.78
2023-04-05T17:45:07.127Z,37.74
2023-04-05T17:47:35.849Z,37.00
2023-04-05T17:50:03.758Z,37.60
2023-04-05T17:52:32.859Z,37.12
2023-04-05T17:55:00.714Z,38.12
2023-04-05T17:57:28.618Z,37.70
2023-04-05T17:59:57.344Z,38.38
2023-04-05T18:02:25.390Z,38.54
2023-04-05T18:04:53.245Z,37.96
2023-04-05T18:07:21.034Z,39.38
2023-04-05T18:09:50.210Z,39.81
2023-04-05T18:12:18.136Z,39.60
2023-04-05T18:14:45.996Z,39.74
2023-04-05T18:17:13.767Z,39.64
2023-04-05T18:19:41.700Z,40.02
2023-04-05T18:22:09.549Z,40.37
2023-04-05T18:24:37.286Z,41.09
2023-04-05T18:27:06.551Z,41.82
2023-04-05T18:29:37.785Z,41.44
2023-04-05T18:32:05.908Z,40.43
2023-04-05T18:34:34.468Z,40.88
2023-04-05T18:37:02.941Z,42.83
2023-04-05T18:39:30.723Z,43.02
2023-04-05T18:41:58.747Z,43.12
2023-04-05T18:44:27.929Z,43.25
2023-04-05T18:46:56.991Z,45.25
2023-04-05T18:49:25.055Z,45.24
2023-04-05T18:51:52.882Z,44.49
2023-04-05T18:54:20.675Z,43.83
2023-04-05T18:56:48.497Z,43.90
2023-04-05T18:59:17.363Z,43.50
2023-04-05T19:01:46.720Z,43.80
2023-04-05T19:04:16.268Z,43.41
2023-04-05T19:06:44.100Z,44.84
2023-04-05T19:09:11.973Z,43.87
2023-04-05T19:11:39.997Z,43.69
2023-04-05T19:14:07.772Z,44.02
2023-04-05T19:16:35.547Z,45.01
2023-04-05T19:19:06.353Z,44.67
2023-04-05T19:21:34.537Z,45.32
2023-04-05T19:24:02.323Z,45.19
2023-04-05T19:26:32.034Z,45.45
2023-04-05T19:29:00.993Z,46.06
2023-04-05T19:31:29.677Z,45.54
2023-04-05T19:33:57.566Z,45.25
2023-04-05T19:36:27.982Z,45.15
2023-04-05T19:38:55.754Z,45.67
2023-04-05T19:41:26.070Z,46.31
2023-04-05T19:43:53.843Z,45.35
2023-04-05T19:46:21.694Z,46.99
2023-04-05T19:48:49.514Z,45.87
2023-04-05T19:51:19.479Z,45.15
2023-04-05T19:53:49.582Z,46.40
2023-04-05T19:56:20.294Z,45.46
2023-04-05T19:58:50.032Z,45.74
2023-04-05T20:01:34.582Z,45.05
2023-04-05T20:04:03.729Z,46.73
2023-04-05T20:06:34.677Z,46.61
2023-04-05T20:09:07.583Z,46.33
2023-04-05T20:11:35.957Z,47.27
2023-04-05T20:14:05.251Z,46.74
2023-04-05T20:16:34.706Z,46.98
2023-04-05T20:19:04.451Z,48.44
2023-04-05T20:21:32.440Z,47.24
2023-04-05T20:24:00.948Z,47.32
2023-04-05T20:26:31.949Z,46.55
2023-04-05T20:29:04.328Z,47.44
2023-04-05T20:31:33.856Z,46.70
2023-04-05T20:34:10.595Z,45.21
2023-04-05T20:36:44.171Z,44.27
2023-04-05T20:39:12.337Z,43.28
2023-04-05T20:41:41.590Z,43.48
2023-04-05T20:44:09.409Z,43.79
2023-04-05T20:46:37.567Z,43.70
2023-04-05T20:49:05.672Z,43.50
2023-04-05T20:51:33.666Z,44.10
2023-04-05T20:54:01.474Z,44.38
2023-04-05T20:56:29.230Z,43.32
2023-04-05T20:58:58.462Z,44.32
2023-04-05T21:01:27.174Z,44.60
2023-04-05T21:03:55.297Z,45.07
2023-04-05T21:06:23.187Z,44.27
2023-04-05T21:08:51.015Z,43.75
2023-04-05T21:11:18.814Z,43.94
2023-04-05T21:13:46.598Z,44.14
2023-04-05T21:16:16.248Z,44.14
2023-04-05T21:18:44.167Z,44.44
2023-04-05T21:21:11.970Z,44.09
2023-04-05T21:23:39.794Z,44.75
2023-04-05T21:26:07.542Z,44.38
2023-04-05T21:28:35.310Z,45.99
2023-04-05T21:31:03.187Z,46.16
2023-04-05T21:33:33.093Z,46.42
2023-04-05T21:36:01.316Z,46.29
2023-04-05T21:38:29.242Z,45.60
2023-04-05T21:40:57.061Z,46.23
2023-04-05T21:43:24.806Z,45.81
2023-04-05T21:45:53.169Z,46.73
2023-04-05T21:48:21.240Z,47.61
2023-04-05T21:50:50.427Z,46.98
2023-04-05T21:53:18.813Z,47.45
2023-04-05T21:55:46.597Z,48.40
2023-04-05T21:58:14.428Z,47.91
2023-04-05T22:00:42.412Z,47.34
2023-04-05T22:03:10.197Z,48.05
2023-04-05T22:05:39.045Z,47.41
2023-04-05T22:08:08.692Z,47.01
2023-04-05T22:10:38.060Z,47.20
2023-04-05T22:13:05.884Z,47.21
2023-04-05T22:15:34.145Z,47.49
2023-04-05T22:18:02.541Z,48.02
2023-04-05T22:20:30.438Z,48.22
2023-04-05T22:22:58.278Z,48.81
2023-04-05T22:25:27.728Z,48.69
2023-04-05T22:27:59.729Z,49.32
2023-04-05T22:30:28.663Z,48.95
2023-04-05T22:32:56.787Z,48.30
2023-04-05T22:35:24.747Z,48.17
2023-04-05T22:37:52.619Z,48.76
2023-04-05T22:40:26.229Z,49.27
2023-04-05T22:42:55.563Z,49.14
2023-04-05T22:45:23.641Z,50.13
2023-04-05T22:47:51.677Z,49.53
2023-04-05T22:50:19.812Z,49.39
2023-04-05T22:52:47.778Z,49.67
2023-04-05T22:55:15.728Z,49.55
2023-04-05T22:57:43.537Z,49.18
2023-04-05T23:00:14.131Z,49.85
2023-04-05T23:02:42.030Z,49.61
2023-04-05T23:05:13.078Z,48.86
2023-04-05T23:07:40.899Z,50.00
2023-04-05T23:10:09.330Z,49.40
2023-04-05T23:12:37.089Z,49.99
2023-04-05T23:15:06.158Z,50.91
2023-04-05T23:17:35.365Z,51.17
2023-04-05T23:20:05.744Z,51.02
2023-04-05T23:22:34.905Z,51.26
2023-04-05T23:25:03.249Z,50.90
2023-04-05T23:27:31.753Z,50.97
2023-04-05T23:29:59.648Z,51.29
2023-04-05T23:32:27.518Z,51.59
2023-04-05T23:34:56.711Z,51.48
2023-04-05T23:37:24.487Z,51.63
2023-04-05T23:39:52.250Z,51.34
2023-04-05T23:42:19.988Z,51.16
2023-04-05T23:44:47.746Z,51.47
2023-04-05T23:47:15.604Z,51.32
2023-04-05T23:49:43.431Z,51.47
2023-04-05T23:52:13.076Z,51.46
2023-04-05T23:54:41.016Z,51.29
2023-04-05T23:57:08.915Z,51.10
2023-04-05T23:59:36.846Z,51.02
